Pernell, Oklahoma
Current Conditions -  °F | °C
As of 1:55 PM on Saturday 25 Oct 2014 (Local Time) from KPVJ Reporting Station
Clear Clear  
Wind Chill: 86°   Ceiling: Unl
Heat Index: 86°   Visibility: 10mi
Dew Point: 60°   Wind: 9mph
Humidity: 41%   Direction: 200°SSW
Pressure: 30.07"   Gusts: NA
Location:  34.56°N, 97.5°W
Report Text: KPVJ 251855Z AUTO 20008KT 10SM CLR 30/15 A3007 RMK AO2 T02990153
Loading
Personal Weather Stations






























Interactive Weather Map
Tropical Storm Tracking
New forecast layout! Learn more

10-Day Weather Forecast

Advertisements
Track Severe Weather on mobile